首页
METAR-TAF:

METAR-TAF

机场 :

萨尔瓦多奥斯卡·阿努尔福·罗梅罗-伊-加尔达梅斯主教国际机场

萨尔瓦多, 萨尔瓦多

纬度: 13-26N, 经度: 089-03W, 海拔: 25米

当前天气观测

该预报发布于31分钟前的05:50 UTC
风速4节,风向北转东北
温度 26°C
湿度 89%
气压 1014 hPa
能见度10公里或以上
少量云层高于2200英尺
少量云层高于4000英尺, 积雨云.
散云层高于6300英尺

METAR: MSLP 210550Z 03004KT 9999 FEW022 FEW040CB SCT063 26/24 Q1014 A2994 NOSIG CB NE

时间: 00:21 (06:21 UTC)

预报

该预报发布于1小时和11分钟前的05:10 UTC
预报有效从21日的 06点(UTC)到 22日的 06点(UTC)
风速9节,风向
能見度: 5000
散云层高于2300英尺
散云层高于3700英尺, 积雨云.
多云层高于6000英尺
雷暴, 雨
从 21日的 0900点(UTC)
风速3节,风向东北
能见度10公里或以上
多云层高于6000英尺
从 21日的 1200点(UTC)
能见度10公里或以上
1500米以下无云,无积雨云
从 21日的 1800点(UTC)
风速9节,风向南转西南
能见度10公里或以上
少量云层高于2700英尺
少量云层高于4000英尺, 积雨云.
从 22日的 0000点(UTC)
风速3节,风向多变

TAF: MSLP 210510Z 2106/2206 08009KT 5000 TSRA SCT023 SCT037CB BKN060 TX33/2119Z TN23/2111Z FM210900 04003KT 9999 FEW20 BKN060 FM211200 CAVOK FM211800 21009KT 9999 FEW027 FEW040CB FM220000 VRB03KT

超过4000个机场的气象观测和天气预报(METAR&TAF报告)。

可查询的气象台以黄色和红色小点在地图上表示。

将鼠标移到小点上方,可查看气象台名称。

然后点击查看天气观测和预报。

如需切换地图:点击带黑十字的绿色按钮放大地图;点击带横线的绿色按钮缩小地图;或者点击绿色箭头查看邻近地区的地图。


METAR-TAF: